sensor_id;sensor_type;location;lat;lon;timestamp;temperature;humidity
56298;DHT22;42208;6.376;-10.782;2023-12-20T00:01:24;27.30;99.90
56298;DHT22;42208;6.376;-10.782;2023-12-20T00:03:53;27.30;99.90
56298;DHT22;42208;6.376;-10.782;2023-12-20T00:06:21;27.30;99.90
56298;DHT22;42208;6.376;-10.782;2023-12-20T00:08:50;27.20;99.90
56298;DHT22;42208;6.376;-10.782;2023-12-20T00:11:18;27.20;99.90
56298;DHT22;42208;6.376;-10.782;2023-12-20T00:13:47;27.10;99.90
56298;DHT22;42208;6.376;-10.782;2023-12-20T00:16:18;27.10;99.90
56298;DHT22;42208;6.376;-10.782;2023-12-20T00:18:47;27.10;99.90
56298;DHT22;42208;6.376;-10.782;2023-12-20T00:21:15;27.10;99.90
56298;DHT22;42208;6.376;-10.782;2023-12-20T00:23:43;27.00;99.90
56298;DHT22;42208;6.376;-10.782;2023-12-20T00:26:12;27.10;99.90
56298;DHT22;42208;6.376;-10.782;2023-12-20T00:28:40;27.00;99.90
56298;DHT22;42208;6.376;-10.782;2023-12-20T00:31:08;27.10;99.90
56298;DHT22;42208;6.376;-10.782;2023-12-20T00:33:37;27.10;99.90
56298;DHT22;42208;6.376;-10.782;2023-12-20T00:36:05;27.00;99.90
56298;DHT22;42208;6.376;-10.782;2023-12-20T00:38:34;27.10;99.90
56298;DHT22;42208;6.376;-10.782;2023-12-20T00:41:02;27.10;99.90
56298;DHT22;42208;6.376;-10.782;2023-12-20T00:43:31;27.00;99.90
56298;DHT22;42208;6.376;-10.782;2023-12-20T00:45:59;27.00;99.90
56298;DHT22;42208;6.376;-10.782;2023-12-20T00:48:27;27.00;99.90
56298;DHT22;42208;6.376;-10.782;2023-12-20T00:50:56;27.00;99.90
56298;DHT22;42208;6.376;-10.782;2023-12-20T00:53:25;27.00;99.90
56298;DHT22;42208;6.376;-10.782;2023-12-20T00:55:53;27.00;99.90
56298;DHT22;42208;6.376;-10.782;2023-12-20T00:58:21;27.00;99.90
56298;DHT22;42208;6.376;-10.782;2023-12-20T01:00:50;27.00;99.90
56298;DHT22;42208;6.376;-10.782;2023-12-20T01:03:19;27.00;99.90
56298;DHT22;42208;6.376;-10.782;2023-12-20T01:05:47;27.00;99.90
56298;DHT22;42208;6.376;-10.782;2023-12-20T01:08:15;27.00;99.90
56298;DHT22;42208;6.376;-10.782;2023-12-20T01:10:44;26.90;99.90
56298;DHT22;42208;6.376;-10.782;2023-12-20T01:13:12;26.90;99.90
56298;DHT22;42208;6.376;-10.782;2023-12-20T01:15:40;26.90;99.90
56298;DHT22;42208;6.376;-10.782;2023-12-20T01:18:09;26.90;99.90
56298;DHT22;42208;6.376;-10.782;2023-12-20T01:20:37;26.90;99.90
56298;DHT22;42208;6.376;-10.782;2023-12-20T01:23:05;26.80;99.90
56298;DHT22;42208;6.376;-10.782;2023-12-20T01:25:34;26.80;99.90
56298;DHT22;42208;6.376;-10.782;2023-12-20T01:28:02;26.80;99.90
56298;DHT22;42208;6.376;-10.782;2023-12-20T01:30:31;26.70;99.90
56298;DHT22;42208;6.376;-10.782;2023-12-20T01:33:00;26.70;99.90
56298;DHT22;42208;6.376;-10.782;2023-12-20T01:35:29;26.70;99.90
56298;DHT22;42208;6.376;-10.782;2023-12-20T01:37:57;26.70;99.90
56298;DHT22;42208;6.376;-10.782;2023-12-20T01:40:25;26.70;99.90
56298;DHT22;42208;6.376;-10.782;2023-12-20T01:43:01;26.70;99.90
56298;DHT22;42208;6.376;-10.782;2023-12-20T01:45:29;26.70;99.90
56298;DHT22;42208;6.376;-10.782;2023-12-20T01:47:59;26.70;99.90
56298;DHT22;42208;6.376;-10.782;2023-12-20T01:50:28;26.60;99.90
56298;DHT22;42208;6.376;-10.782;2023-12-20T01:52:58;26.60;99.90
56298;DHT22;42208;6.376;-10.782;2023-12-20T01:55:30;26.60;99.90
56298;DHT22;42208;6.376;-10.782;2023-12-20T01:58:00;26.50;99.90
56298;DHT22;42208;6.376;-10.782;2023-12-20T02:00:29;26.50;99.90
56298;DHT22;42208;6.376;-10.782;2023-12-20T02:03:01;26.50;99.90
56298;DHT22;42208;6.376;-10.782;2023-12-20T02:05:35;26.50;99.90
56298;DHT22;42208;6.376;-10.782;2023-12-20T02:08:04;26.50;99.90
56298;DHT22;42208;6.376;-10.782;2023-12-20T02:10:32;26.50;99.90
56298;DHT22;42208;6.376;-10.782;2023-12-20T02:13:01;26.50;99.90
56298;DHT22;42208;6.376;-10.782;2023-12-20T02:15:29;26.50;99.90
56298;DHT22;42208;6.376;-10.782;2023-12-20T02:17:57;26.50;99.90
56298;DHT22;42208;6.376;-10.782;2023-12-20T02:20:26;26.50;99.90
56298;DHT22;42208;6.376;-10.782;2023-12-20T02:22:54;26.50;99.90
56298;DHT22;42208;6.376;-10.782;2023-12-20T02:25:23;26.50;99.90
56298;DHT22;42208;6.376;-10.782;2023-12-20T02:27:51;26.50;99.90
56298;DHT22;42208;6.376;-10.782;2023-12-20T02:30:20;26.50;99.90
56298;DHT22;42208;6.376;-10.782;2023-12-20T02:32:49;26.50;99.90
56298;DHT22;42208;6.376;-10.782;2023-12-20T02:35:18;26.50;99.90
56298;DHT22;42208;6.376;-10.782;2023-12-20T02:37:46;26.50;99.90
56298;DHT22;42208;6.376;-10.782;2023-12-20T02:40:15;26.50;99.90
56298;DHT22;42208;6.376;-10.782;2023-12-20T02:42:43;26.50;99.90
56298;DHT22;42208;6.376;-10.782;2023-12-20T02:45:12;26.50;99.90
56298;DHT22;42208;6.376;-10.782;2023-12-20T02:47:40;26.50;99.90
56298;DHT22;42208;6.376;-10.782;2023-12-20T02:50:08;26.50;99.90
56298;DHT22;42208;6.376;-10.782;2023-12-20T02:52:37;26.50;99.90
56298;DHT22;42208;6.376;-10.782;2023-12-20T02:55:05;26.50;99.90
56298;DHT22;42208;6.376;-10.782;2023-12-20T02:57:34;26.40;99.90
56298;DHT22;42208;6.376;-10.782;2023-12-20T03:00:02;26.40;99.90
56298;DHT22;42208;6.376;-10.782;2023-12-20T03:02:30;26.40;99.90
56298;DHT22;42208;6.376;-10.782;2023-12-20T03:05:01;26.40;99.90
56298;DHT22;42208;6.376;-10.782;2023-12-20T03:07:29;26.30;99.90
56298;DHT22;42208;6.376;-10.782;2023-12-20T03:09:57;26.30;99.90
56298;DHT22;42208;6.376;-10.782;2023-12-20T03:12:45;26.30;99.90
56298;DHT22;42208;6.376;-10.782;2023-12-20T03:15:14;26.30;99.90
56298;DHT22;42208;6.376;-10.782;2023-12-20T03:17:42;26.20;99.90
56298;DHT22;42208;6.376;-10.782;2023-12-20T03:20:12;26.20;99.90
56298;DHT22;42208;6.376;-10.782;2023-12-20T03:22:40;26.10;99.90
56298;DHT22;42208;6.376;-10.782;2023-12-20T03:25:09;26.10;99.90
56298;DHT22;42208;6.376;-10.782;2023-12-20T03:27:38;26.10;99.90
56298;DHT22;42208;6.376;-10.782;2023-12-20T03:30:07;26.10;99.90
56298;DHT22;42208;6.376;-10.782;2023-12-20T03:32:36;26.10;99.90
56298;DHT22;42208;6.376;-10.782;2023-12-20T03:35:04;26.10;99.90
56298;DHT22;42208;6.376;-10.782;2023-12-20T03:37:33;26.10;99.90
56298;DHT22;42208;6.376;-10.782;2023-12-20T03:40:02;26.10;99.90
56298;DHT22;42208;6.376;-10.782;2023-12-20T03:42:30;26.10;99.90
56298;DHT22;42208;6.376;-10.782;2023-12-20T03:44:58;26.20;99.90
56298;DHT22;42208;6.376;-10.782;2023-12-20T03:47:27;26.10;99.90
56298;DHT22;42208;6.376;-10.782;2023-12-20T03:49:55;26.10;99.90
56298;DHT22;42208;6.376;-10.782;2023-12-20T03:52:23;26.10;99.90
56298;DHT22;42208;6.376;-10.782;2023-12-20T03:54:52;26.10;99.90
56298;DHT22;42208;6.376;-10.782;2023-12-20T03:57:20;26.10;99.90
56298;DHT22;42208;6.376;-10.782;2023-12-20T03:59:48;26.10;99.90
56298;DHT22;42208;6.376;-10.782;2023-12-20T04:02:17;26.10;99.90
56298;DHT22;42208;6.376;-10.782;2023-12-20T04:04:45;26.10;99.90
56298;DHT22;42208;6.376;-10.782;2023-12-20T04:07:14;26.10;99.90
56298;DHT22;42208;6.376;-10.782;2023-12-20T04:09:42;26.10;99.90
56298;DHT22;42208;6.376;-10.782;2023-12-20T04:12:11;26.10;99.90
56298;DHT22;42208;6.376;-10.782;2023-12-20T04:14:39;26.10;99.90
56298;DHT22;42208;6.376;-10.782;2023-12-20T04:17:07;26.10;99.90
56298;DHT22;42208;6.376;-10.782;2023-12-20T04:19:36;26.10;99.90
56298;DHT22;42208;6.376;-10.782;2023-12-20T04:22:04;26.10;99.90
56298;DHT22;42208;6.376;-10.782;2023-12-20T04:24:32;26.00;99.90
56298;DHT22;42208;6.376;-10.782;2023-12-20T04:27:01;26.00;99.90
56298;DHT22;42208;6.376;-10.782;2023-12-20T04:29:30;26.00;99.90
56298;DHT22;42208;6.376;-10.782;2023-12-20T04:31:58;26.10;99.90
56298;DHT22;42208;6.376;-10.782;2023-12-20T04:34:26;26.00;99.90
56298;DHT22;42208;6.376;-10.782;2023-12-20T04:36:55;26.00;99.90
56298;DHT22;42208;6.376;-10.782;2023-12-20T04:39:23;26.00;99.90
56298;DHT22;42208;6.376;-10.782;2023-12-20T04:41:52;26.00;99.90
56298;DHT22;42208;6.376;-10.782;2023-12-20T04:44:20;26.00;99.90
56298;DHT22;42208;6.376;-10.782;2023-12-20T04:46:48;26.00;99.90
56298;DHT22;42208;6.376;-10.782;2023-12-20T04:49:17;26.00;99.90
56298;DHT22;42208;6.376;-10.782;2023-12-20T04:51:45;25.90;99.90
56298;DHT22;42208;6.376;-10.782;2023-12-20T04:54:13;25.90;99.90
56298;DHT22;42208;6.376;-10.782;2023-12-20T04:56:42;25.90;99.90
56298;DHT22;42208;6.376;-10.782;2023-12-20T04:59:10;25.90;99.90
56298;DHT22;42208;6.376;-10.782;2023-12-20T05:01:38;25.90;99.90
56298;DHT22;42208;6.376;-10.782;2023-12-20T05:04:07;25.90;99.90
56298;DHT22;42208;6.376;-10.782;2023-12-20T05:06:38;25.90;99.90
56298;DHT22;42208;6.376;-10.782;2023-12-20T05:09:07;25.90;99.90
56298;DHT22;42208;6.376;-10.782;2023-12-20T05:11:35;25.80;99.90
56298;DHT22;42208;6.376;-10.782;2023-12-20T05:14:03;25.80;99.90
56298;DHT22;42208;6.376;-10.782;2023-12-20T05:16:32;25.80;99.90
56298;DHT22;42208;6.376;-10.782;2023-12-20T05:19:00;25.80;99.90
56298;DHT22;42208;6.376;-10.782;2023-12-20T05:21:29;25.70;99.90
56298;DHT22;42208;6.376;-10.782;2023-12-20T05:23:57;25.70;99.90
56298;DHT22;42208;6.376;-10.782;2023-12-20T05:26:25;25.70;99.90
56298;DHT22;42208;6.376;-10.782;2023-12-20T05:28:54;25.70;99.90
56298;DHT22;42208;6.376;-10.782;2023-12-20T05:31:22;25.70;99.90
56298;DHT22;42208;6.376;-10.782;2023-12-20T05:33:50;25.70;99.90
56298;DHT22;42208;6.376;-10.782;2023-12-20T05:36:19;25.60;99.90
56298;DHT22;42208;6.376;-10.782;2023-12-20T05:38:47;25.60;99.90
56298;DHT22;42208;6.376;-10.782;2023-12-20T05:41:16;25.60;99.90
56298;DHT22;42208;6.376;-10.782;2023-12-20T05:43:45;25.60;99.90
56298;DHT22;42208;6.376;-10.782;2023-12-20T05:46:13;25.60;99.90
56298;DHT22;42208;6.376;-10.782;2023-12-20T05:48:41;25.60;99.90
56298;DHT22;42208;6.376;-10.782;2023-12-20T05:51:13;25.60;99.90
56298;DHT22;42208;6.376;-10.782;2023-12-20T05:53:41;25.60;99.90
56298;DHT22;42208;6.376;-10.782;2023-12-20T05:56:10;25.60;99.90
56298;DHT22;42208;6.376;-10.782;2023-12-20T05:58:39;25.60;99.90
56298;DHT22;42208;6.376;-10.782;2023-12-20T06:01:07;25.60;99.90
56298;DHT22;42208;6.376;-10.782;2023-12-20T06:03:36;25.50;99.90
56298;DHT22;42208;6.376;-10.782;2023-12-20T06:06:06;25.50;99.90
56298;DHT22;42208;6.376;-10.782;2023-12-20T06:08:43;25.60;99.90
56298;DHT22;42208;6.376;-10.782;2023-12-20T06:11:12;25.50;99.90
56298;DHT22;42208;6.376;-10.782;2023-12-20T06:13:40;25.40;99.90
56298;DHT22;42208;6.376;-10.782;2023-12-20T06:16:09;25.40;99.90
56298;DHT22;42208;6.376;-10.782;2023-12-20T06:18:37;25.40;99.90
56298;DHT22;42208;6.376;-10.782;2023-12-20T06:21:08;25.30;99.90
56298;DHT22;42208;6.376;-10.782;2023-12-20T06:23:37;25.30;99.90
56298;DHT22;42208;6.376;-10.782;2023-12-20T06:26:05;25.20;99.90
56298;DHT22;42208;6.376;-10.782;2023-12-20T06:28:33;25.20;99.90
56298;DHT22;42208;6.376;-10.782;2023-12-20T06:31:03;25.20;99.90
56298;DHT22;42208;6.376;-10.782;2023-12-20T06:33:31;25.10;99.90
56298;DHT22;42208;6.376;-10.782;2023-12-20T06:36:00;25.10;99.90
56298;DHT22;42208;6.376;-10.782;2023-12-20T06:38:28;25.10;99.90
56298;DHT22;42208;6.376;-10.782;2023-12-20T06:40:57;25.10;99.90
56298;DHT22;42208;6.376;-10.782;2023-12-20T06:43:27;25.00;99.90
56298;DHT22;42208;6.376;-10.782;2023-12-20T06:46:13;25.00;99.90
56298;DHT22;42208;6.376;-10.782;2023-12-20T06:48:41;24.90;99.90
56298;DHT22;42208;6.376;-10.782;2023-12-20T06:51:15;24.90;99.90
56298;DHT22;42208;6.376;-10.782;2023-12-20T06:53:44;24.80;99.90
56298;DHT22;42208;6.376;-10.782;2023-12-20T06:56:12;24.80;99.90
56298;DHT22;42208;6.376;-10.782;2023-12-20T06:58:45;24.80;99.90
56298;DHT22;42208;6.376;-10.782;2023-12-20T07:01:15;24.80;99.90
56298;DHT22;42208;6.376;-10.782;2023-12-20T07:03:43;24.80;99.90
56298;DHT22;42208;6.376;-10.782;2023-12-20T07:06:11;24.70;99.90
56298;DHT22;42208;6.376;-10.782;2023-12-20T07:08:40;24.80;99.90
56298;DHT22;42208;6.376;-10.782;2023-12-20T07:11:09;24.80;99.90
56298;DHT22;42208;6.376;-10.782;2023-12-20T07:13:37;24.80;99.90
56298;DHT22;42208;6.376;-10.782;2023-12-20T07:16:06;24.80;99.90
56298;DHT22;42208;6.376;-10.782;2023-12-20T07:18:34;24.80;99.90
56298;DHT22;42208;6.376;-10.782;2023-12-20T07:21:03;24.80;99.90
56298;DHT22;42208;6.376;-10.782;2023-12-20T07:23:32;24.80;99.90
56298;DHT22;42208;6.376;-10.782;2023-12-20T07:26:00;24.80;99.90
56298;DHT22;42208;6.376;-10.782;2023-12-20T07:28:28;24.80;99.90
56298;DHT22;42208;6.376;-10.782;2023-12-20T07:30:57;24.80;99.90
56298;DHT22;42208;6.376;-10.782;2023-12-20T07:33:25;24.80;99.90
56298;DHT22;42208;6.376;-10.782;2023-12-20T07:35:54;24.80;99.90
56298;DHT22;42208;6.376;-10.782;2023-12-20T07:38:22;24.90;99.90
56298;DHT22;42208;6.376;-10.782;2023-12-20T07:40:51;24.90;99.90
56298;DHT22;42208;6.376;-10.782;2023-12-20T07:43:19;24.80;99.90
56298;DHT22;42208;6.376;-10.782;2023-12-20T07:45:47;24.80;99.90
56298;DHT22;42208;6.376;-10.782;2023-12-20T07:48:16;24.80;99.90
56298;DHT22;42208;6.376;-10.782;2023-12-20T07:50:45;24.80;99.90
56298;DHT22;42208;6.376;-10.782;2023-12-20T07:53:13;24.80;99.90
56298;DHT22;42208;6.376;-10.782;2023-12-20T07:55:41;24.80;99.90
56298;DHT22;42208;6.376;-10.782;2023-12-20T07:58:09;24.90;99.90
56298;DHT22;42208;6.376;-10.782;2023-12-20T08:00:38;24.90;99.90
56298;DHT22;42208;6.376;-10.782;2023-12-20T08:03:06;25.00;99.90
56298;DHT22;42208;6.376;-10.782;2023-12-20T08:05:34;25.10;99.90
56298;DHT22;42208;6.376;-10.782;2023-12-20T08:08:03;25.10;99.90
56298;DHT22;42208;6.376;-10.782;2023-12-20T08:10:32;25.10;99.90
56298;DHT22;42208;6.376;-10.782;2023-12-20T08:13:00;25.20;99.90
56298;DHT22;42208;6.376;-10.782;2023-12-20T08:18:18;25.30;99.90
56298;DHT22;42208;6.376;-10.782;2023-12-20T08:20:46;25.30;99.90
56298;DHT22;42208;6.376;-10.782;2023-12-20T08:23:15;25.30;99.90
56298;DHT22;42208;6.376;-10.782;2023-12-20T08:25:44;25.30;99.90
56298;DHT22;42208;6.376;-10.782;2023-12-20T08:28:12;25.40;99.90
56298;DHT22;42208;6.376;-10.782;2023-12-20T08:30:41;25.40;99.90
56298;DHT22;42208;6.376;-10.782;2023-12-20T08:33:09;25.40;99.90
56298;DHT22;42208;6.376;-10.782;2023-12-20T08:35:41;25.40;99.90
56298;DHT22;42208;6.376;-10.782;2023-12-20T08:38:09;25.50;99.90
56298;DHT22;42208;6.376;-10.782;2023-12-20T08:40:41;25.60;99.90
56298;DHT22;42208;6.376;-10.782;2023-12-20T08:43:09;25.60;99.90
56298;DHT22;42208;6.376;-10.782;2023-12-20T08:45:38;25.60;99.90
56298;DHT22;42208;6.376;-10.782;2023-12-20T08:48:07;25.70;99.90
56298;DHT22;42208;6.376;-10.782;2023-12-20T08:50:36;25.80;99.90
56298;DHT22;42208;6.376;-10.782;2023-12-20T08:53:05;25.80;99.90
56298;DHT22;42208;6.376;-10.782;2023-12-20T08:55:33;25.80;99.90
56298;DHT22;42208;6.376;-10.782;2023-12-20T08:58:02;25.80;99.90
56298;DHT22;42208;6.376;-10.782;2023-12-20T09:00:30;25.90;99.90
56298;DHT22;42208;6.376;-10.782;2023-12-20T09:02:59;25.90;99.90
56298;DHT22;42208;6.376;-10.782;2023-12-20T09:05:27;26.00;99.90
56298;DHT22;42208;6.376;-10.782;2023-12-20T09:07:56;26.10;99.90
56298;DHT22;42208;6.376;-10.782;2023-12-20T09:10:25;26.10;99.90
56298;DHT22;42208;6.376;-10.782;2023-12-20T09:12:54;26.10;99.90
56298;DHT22;42208;6.376;-10.782;2023-12-20T09:15:26;26.10;99.90
56298;DHT22;42208;6.376;-10.782;2023-12-20T09:17:57;26.20;99.90
56298;DHT22;42208;6.376;-10.782;2023-12-20T09:20:25;26.20;99.90
56298;DHT22;42208;6.376;-10.782;2023-12-20T09:22:54;26.30;99.90
56298;DHT22;42208;6.376;-10.782;2023-12-20T09:25:22;26.30;99.90
56298;DHT22;42208;6.376;-10.782;2023-12-20T09:27:51;26.30;99.90
56298;DHT22;42208;6.376;-10.782;2023-12-20T09:30:19;26.40;99.90
56298;DHT22;42208;6.376;-10.782;2023-12-20T09:32:57;26.50;99.90
56298;DHT22;42208;6.376;-10.782;2023-12-20T09:35:25;26.50;99.90
56298;DHT22;42208;6.376;-10.782;2023-12-20T09:37:54;26.50;99.90
56298;DHT22;42208;6.376;-10.782;2023-12-20T09:40:24;26.60;99.90
56298;DHT22;42208;6.376;-10.782;2023-12-20T09:43:13;26.60;99.90
56298;DHT22;42208;6.376;-10.782;2023-12-20T09:45:45;26.70;99.90
56298;DHT22;42208;6.376;-10.782;2023-12-20T09:48:18;26.80;99.90
56298;DHT22;42208;6.376;-10.782;2023-12-20T09:50:47;26.80;99.90
56298;DHT22;42208;6.376;-10.782;2023-12-20T09:53:21;26.90;99.90
56298;DHT22;42208;6.376;-10.782;2023-12-20T09:55:51;26.90;99.90
56298;DHT22;42208;6.376;-10.782;2023-12-20T09:58:20;27.00;99.90
56298;DHT22;42208;6.376;-10.782;2023-12-20T10:00:49;27.10;99.90
56298;DHT22;42208;6.376;-10.782;2023-12-20T10:03:20;27.10;99.90
56298;DHT22;42208;6.376;-10.782;2023-12-20T10:05:54;27.20;99.90
56298;DHT22;42208;6.376;-10.782;2023-12-20T10:08:24;27.20;99.90
56298;DHT22;42208;6.376;-10.782;2023-12-20T10:10:53;27.30;99.90
56298;DHT22;42208;6.376;-10.782;2023-12-20T10:13:21;27.50;99.90
56298;DHT22;42208;6.376;-10.782;2023-12-20T10:15:50;27.50;99.90
56298;DHT22;42208;6.376;-10.782;2023-12-20T10:18:18;27.60;99.90
56298;DHT22;42208;6.376;-10.782;2023-12-20T10:20:47;27.60;99.90
56298;DHT22;42208;6.376;-10.782;2023-12-20T10:23:16;27.70;99.90
56298;DHT22;42208;6.376;-10.782;2023-12-20T10:25:56;27.70;99.90
56298;DHT22;42208;6.376;-10.782;2023-12-20T10:28:25;27.70;99.90
56298;DHT22;42208;6.376;-10.782;2023-12-20T10:30:54;27.80;99.90
56298;DHT22;42208;6.376;-10.782;2023-12-20T10:33:28;27.80;99.90
56298;DHT22;42208;6.376;-10.782;2023-12-20T10:35:56;28.00;99.90
56298;DHT22;42208;6.376;-10.782;2023-12-20T10:38:25;28.10;99.90
56298;DHT22;42208;6.376;-10.782;2023-12-20T10:40:57;28.10;99.90
56298;DHT22;42208;6.376;-10.782;2023-12-20T10:43:27;28.10;99.90
56298;DHT22;42208;6.376;-10.782;2023-12-20T10:45:57;28.20;99.90
56298;DHT22;42208;6.376;-10.782;2023-12-20T10:48:26;28.20;99.90
56298;DHT22;42208;6.376;-10.782;2023-12-20T10:50:56;28.20;99.90
56298;DHT22;42208;6.376;-10.782;2023-12-20T10:53:25;28.30;99.90
56298;DHT22;42208;6.376;-10.782;2023-12-20T10:55:56;28.40;99.90
56298;DHT22;42208;6.376;-10.782;2023-12-20T10:58:29;28.40;99.90
56298;DHT22;42208;6.376;-10.782;2023-12-20T11:01:01;28.50;99.90
56298;DHT22;42208;6.376;-10.782;2023-12-20T11:03:34;28.60;99.90
56298;DHT22;42208;6.376;-10.782;2023-12-20T11:06:19;28.60;99.90
56298;DHT22;42208;6.376;-10.782;2023-12-20T11:12:02;28.70;99.90
56298;DHT22;42208;6.376;-10.782;2023-12-20T11:17:12;28.80;99.90
56298;DHT22;42208;6.376;-10.782;2023-12-20T11:22:22;28.90;99.90
56298;DHT22;42208;6.376;-10.782;2023-12-20T11:24:51;28.90;99.90
56298;DHT22;42208;6.376;-10.782;2023-12-20T11:27:20;28.90;99.90
56298;DHT22;42208;6.376;-10.782;2023-12-20T11:29:56;29.00;99.90
56298;DHT22;42208;6.376;-10.782;2023-12-20T11:35:01;28.90;99.90
56298;DHT22;42208;6.376;-10.782;2023-12-20T11:37:45;29.00;99.90
56298;DHT22;42208;6.376;-10.782;2023-12-20T11:40:18;29.00;99.90
56298;DHT22;42208;6.376;-10.782;2023-12-20T11:42:50;28.90;99.90
56298;DHT22;42208;6.376;-10.782;2023-12-20T11:45:21;28.90;99.90
56298;DHT22;42208;6.376;-10.782;2023-12-20T11:47:50;29.00;99.90
56298;DHT22;42208;6.376;-10.782;2023-12-20T11:50:20;29.00;99.90
56298;DHT22;42208;6.376;-10.782;2023-12-20T11:52:50;29.00;99.90
56298;DHT22;42208;6.376;-10.782;2023-12-20T11:55:19;29.00;99.90
56298;DHT22;42208;6.376;-10.782;2023-12-20T11:57:48;29.00;99.90
56298;DHT22;42208;6.376;-10.782;2023-12-20T12:00:18;29.10;99.90
56298;DHT22;42208;6.376;-10.782;2023-12-20T12:02:59;29.10;99.90
56298;DHT22;42208;6.376;-10.782;2023-12-20T12:05:27;29.20;99.90
56298;DHT22;42208;6.376;-10.782;2023-12-20T12:07:56;29.20;99.90
56298;DHT22;42208;6.376;-10.782;2023-12-20T12:10:24;29.20;99.90
56298;DHT22;42208;6.376;-10.782;2023-12-20T12:12:53;29.20;99.90
56298;DHT22;42208;6.376;-10.782;2023-12-20T12:15:22;29.30;99.90
56298;DHT22;42208;6.376;-10.782;2023-12-20T12:17:57;29.40;99.90
56298;DHT22;42208;6.376;-10.782;2023-12-20T12:20:25;29.50;99.90
56298;DHT22;42208;6.376;-10.782;2023-12-20T12:23:04;29.60;99.90
56298;DHT22;42208;6.376;-10.782;2023-12-20T12:25:35;29.60;99.90
56298;DHT22;42208;6.376;-10.782;2023-12-20T12:28:09;29.70;99.90
56298;DHT22;42208;6.376;-10.782;2023-12-20T12:30:37;29.70;99.90
56298;DHT22;42208;6.376;-10.782;2023-12-20T12:33:17;29.70;99.90
56298;DHT22;42208;6.376;-10.782;2023-12-20T12:35:46;29.70;99.90
56298;DHT22;42208;6.376;-10.782;2023-12-20T12:38:14;29.80;99.90
56298;DHT22;42208;6.376;-10.782;2023-12-20T12:40:44;29.80;99.90
56298;DHT22;42208;6.376;-10.782;2023-12-20T12:43:12;29.90;99.90
56298;DHT22;42208;6.376;-10.782;2023-12-20T12:45:41;30.00;99.90
56298;DHT22;42208;6.376;-10.782;2023-12-20T12:48:09;30.10;99.90
56298;DHT22;42208;6.376;-10.782;2023-12-20T12:50:38;30.10;99.90
56298;DHT22;42208;6.376;-10.782;2023-12-20T12:53:06;30.20;99.90
56298;DHT22;42208;6.376;-10.782;2023-12-20T12:55:35;30.20;99.90
56298;DHT22;42208;6.376;-10.782;2023-12-20T12:58:04;30.20;99.90
56298;DHT22;42208;6.376;-10.782;2023-12-20T13:00:32;30.30;99.90
56298;DHT22;42208;6.376;-10.782;2023-12-20T13:03:01;30.30;99.90
56298;DHT22;42208;6.376;-10.782;2023-12-20T13:05:29;30.40;99.90
56298;DHT22;42208;6.376;-10.782;2023-12-20T13:08:00;30.40;99.90
56298;DHT22;42208;6.376;-10.782;2023-12-20T13:10:28;30.50;99.90
56298;DHT22;42208;6.376;-10.782;2023-12-20T13:12:57;30.50;99.90
56298;DHT22;42208;6.376;-10.782;2023-12-20T13:15:25;30.50;99.90
56298;DHT22;42208;6.376;-10.782;2023-12-20T13:17:53;30.60;99.90
56298;DHT22;42208;6.376;-10.782;2023-12-20T13:20:22;30.70;99.90
56298;DHT22;42208;6.376;-10.782;2023-12-20T13:22:51;30.70;99.90
56298;DHT22;42208;6.376;-10.782;2023-12-20T13:25:19;30.80;99.90
56298;DHT22;42208;6.376;-10.782;2023-12-20T13:27:47;30.80;99.90
56298;DHT22;42208;6.376;-10.782;2023-12-20T13:30:17;30.80;99.90
56298;DHT22;42208;6.376;-10.782;2023-12-20T13:32:45;30.90;99.90
56298;DHT22;42208;6.376;-10.782;2023-12-20T13:35:14;30.90;99.90
56298;DHT22;42208;6.376;-10.782;2023-12-20T13:37:42;30.90;99.90
56298;DHT22;42208;6.376;-10.782;2023-12-20T13:40:11;31.00;99.90
56298;DHT22;42208;6.376;-10.782;2023-12-20T13:42:40;31.00;99.90
56298;DHT22;42208;6.376;-10.782;2023-12-20T13:45:08;31.10;99.90
56298;DHT22;42208;6.376;-10.782;2023-12-20T13:47:37;31.10;99.90
56298;DHT22;42208;6.376;-10.782;2023-12-20T13:50:05;31.20;99.90
56298;DHT22;42208;6.376;-10.782;2023-12-20T13:52:34;31.20;99.90
56298;DHT22;42208;6.376;-10.782;2023-12-20T13:55:06;31.20;99.90
56298;DHT22;42208;6.376;-10.782;2023-12-20T13:57:35;31.30;99.90
56298;DHT22;42208;6.376;-10.782;2023-12-20T14:00:21;31.40;99.90
56298;DHT22;42208;6.376;-10.782;2023-12-20T14:02:50;31.40;99.90
56298;DHT22;42208;6.376;-10.782;2023-12-20T14:05:18;31.50;99.90
56298;DHT22;42208;6.376;-10.782;2023-12-20T14:07:48;31.60;99.90
56298;DHT22;42208;6.376;-10.782;2023-12-20T14:10:17;31.60;99.90
56298;DHT22;42208;6.376;-10.782;2023-12-20T14:12:45;31.70;99.90
56298;DHT22;42208;6.376;-10.782;2023-12-20T14:15:14;31.80;99.90
56298;DHT22;42208;6.376;-10.782;2023-12-20T14:17:42;31.80;99.90
56298;DHT22;42208;6.376;-10.782;2023-12-20T14:20:11;31.90;99.90
56298;DHT22;42208;6.376;-10.782;2023-12-20T14:22:40;31.90;99.90
56298;DHT22;42208;6.376;-10.782;2023-12-20T14:25:12;32.00;99.90
56298;DHT22;42208;6.376;-10.782;2023-12-20T14:27:42;32.00;99.90
56298;DHT22;42208;6.376;-10.782;2023-12-20T14:30:12;32.00;99.90
56298;DHT22;42208;6.376;-10.782;2023-12-20T14:32:40;32.10;99.90
56298;DHT22;42208;6.376;-10.782;2023-12-20T14:35:09;32.10;99.90
56298;DHT22;42208;6.376;-10.782;2023-12-20T14:37:38;32.20;99.90
56298;DHT22;42208;6.376;-10.782;2023-12-20T14:40:07;32.30;99.90
56298;DHT22;42208;6.376;-10.782;2023-12-20T14:42:35;32.40;99.90
56298;DHT22;42208;6.376;-10.782;2023-12-20T14:45:04;32.50;99.90
56298;DHT22;42208;6.376;-10.782;2023-12-20T14:47:33;32.50;99.90
56298;DHT22;42208;6.376;-10.782;2023-12-20T14:50:05;32.40;99.90
56298;DHT22;42208;6.376;-10.782;2023-12-20T14:52:34;32.40;99.90
56298;DHT22;42208;6.376;-10.782;2023-12-20T14:55:03;32.30;99.90
56298;DHT22;42208;6.376;-10.782;2023-12-20T14:57:32;32.30;99.90
56298;DHT22;42208;6.376;-10.782;2023-12-20T15:00:00;32.40;99.90
56298;DHT22;42208;6.376;-10.782;2023-12-20T15:02:28;32.40;99.90
56298;DHT22;42208;6.376;-10.782;2023-12-20T15:04:57;32.40;99.90
56298;DHT22;42208;6.376;-10.782;2023-12-20T15:07:27;32.60;99.90
56298;DHT22;42208;6.376;-10.782;2023-12-20T15:09:56;32.60;99.90
56298;DHT22;42208;6.376;-10.782;2023-12-20T15:12:24;32.60;99.90
56298;DHT22;42208;6.376;-10.782;2023-12-20T15:14:53;32.60;99.90
56298;DHT22;42208;6.376;-10.782;2023-12-20T15:17:21;32.60;99.90
56298;DHT22;42208;6.376;-10.782;2023-12-20T15:19:50;32.60;99.90
56298;DHT22;42208;6.376;-10.782;2023-12-20T15:22:18;32.50;99.90
56298;DHT22;42208;6.376;-10.782;2023-12-20T15:24:47;32.50;99.90
56298;DHT22;42208;6.376;-10.782;2023-12-20T15:27:15;32.50;99.90
56298;DHT22;42208;6.376;-10.782;2023-12-20T15:29:44;32.60;99.90
56298;DHT22;42208;6.376;-10.782;2023-12-20T15:32:12;32.60;99.90
56298;DHT22;42208;6.376;-10.782;2023-12-20T15:34:40;32.70;99.90
56298;DHT22;42208;6.376;-10.782;2023-12-20T15:37:09;32.70;99.90
56298;DHT22;42208;6.376;-10.782;2023-12-20T15:39:37;32.80;99.90
56298;DHT22;42208;6.376;-10.782;2023-12-20T15:42:06;32.90;99.90